createdAt,value
2023-02-10T00:02:07.484Z,101319.59
2023-02-10T00:05:17.850Z,101315.45
2023-02-10T00:08:19.251Z,101313.45
2023-02-10T00:11:11.767Z,101318.45
2023-02-10T00:13:52.784Z,101320.29
2023-02-10T00:16:25.003Z,101323.16
2023-02-10T00:18:59.447Z,101328.96
2023-02-10T00:21:31.341Z,101329.02
2023-02-10T00:24:04.272Z,101328.32
2023-02-10T00:26:51.090Z,101328.44
2023-02-10T00:29:22.624Z,101329.64
2023-02-10T00:32:08.977Z,101329.13
2023-02-10T00:34:40.690Z,101328.56
2023-02-10T00:37:16.121Z,101328.63
2023-02-10T00:39:56.638Z,101324.91
2023-02-10T00:42:34.490Z,101325.05
2023-02-10T00:45:10.272Z,101321.91
2023-02-10T00:47:42.116Z,101318.91
2023-02-10T00:50:14.100Z,101312.38
2023-02-10T00:52:42.779Z,101314.23
2023-02-10T00:55:11.695Z,101319.33
2023-02-10T00:57:43.306Z,101323.25
2023-02-10T01:00:12.393Z,101326.77
2023-02-10T01:02:41.350Z,101321.23
2023-02-10T01:05:15.703Z,101325.75
2023-02-10T01:07:54.187Z,101323.61
2023-02-10T01:10:29.450Z,101318.94
2023-02-10T01:12:58.278Z,101316.26
2023-02-10T01:15:44.389Z,101314.33
2023-02-10T01:18:14.713Z,101316.45
2023-02-10T01:21:08.877Z,101312.95
2023-02-10T01:24:01.933Z,101313.84
2023-02-10T01:26:36.385Z,101310.98
2023-02-10T01:29:13.182Z,101314.88
2023-02-10T01:31:45.420Z,101319.95
2023-02-10T01:34:19.717Z,101316.80
2023-02-10T01:37:00.276Z,101316.66
2023-02-10T01:39:31.175Z,101309.66
2023-02-10T01:42:02.598Z,101309.20
2023-02-10T01:44:36.794Z,101302.73
2023-02-10T01:47:16.074Z,101299.13
2023-02-10T01:49:56.270Z,101295.53
2023-02-10T01:52:34.811Z,101304.16
2023-02-10T01:55:16.958Z,101304.81
2023-02-10T01:57:49.858Z,101303.23
2023-02-10T02:00:38.609Z,101305.61
2023-02-10T02:03:22.499Z,101301.95
2023-02-10T02:05:58.093Z,101297.78
2023-02-10T02:08:32.196Z,101299.64
2023-02-10T02:11:42.404Z,101301.63
2023-02-10T02:15:01.518Z,101300.73
2023-02-10T02:17:32.415Z,101300.60
2023-02-10T02:20:40.305Z,101297.94
2023-02-10T02:23:22.256Z,101305.39
2023-02-10T02:26:10.361Z,101312.19
2023-02-10T02:29:07.323Z,101314.32
2023-02-10T02:31:59.083Z,101320.94
2023-02-10T02:35:03.802Z,101327.35
2023-02-10T02:37:46.770Z,101335.19
2023-02-10T02:40:21.004Z,101333.20
2023-02-10T02:42:57.072Z,101329.02
2023-02-10T02:45:31.422Z,101327.58
2023-02-10T02:48:35.597Z,101322.74
2023-02-10T02:51:16.394Z,101323.23
2023-02-10T02:54:16.767Z,101318.52
2023-02-10T02:56:57.721Z,101322.70
2023-02-10T02:59:53.501Z,101318.59
2023-02-10T03:02:35.977Z,101320.77
2023-02-10T03:05:10.242Z,101318.94
2023-02-10T03:07:41.455Z,101326.23
2023-02-10T03:10:10.958Z,101328.70
2023-02-10T03:12:39.656Z,101326.73
2023-02-10T03:15:16.672Z,101332.80
2023-02-10T03:18:10.485Z,101338.89
2023-02-10T03:20:53.835Z,101340.83
2023-02-10T03:23:26.441Z,101347.08
2023-02-10T03:25:58.065Z,101346.24
2023-02-10T03:28:28.296Z,101351.93
2023-02-10T03:30:59.810Z,101355.39
2023-02-10T03:33:37.108Z,101355.89
2023-02-10T03:36:06.457Z,101355.34
2023-02-10T03:38:40.915Z,101355.33
2023-02-10T03:41:14.795Z,101356.88
2023-02-10T03:43:43.595Z,101358.73
2023-02-10T03:46:13.134Z,101357.67
2023-02-10T03:48:41.633Z,101357.31
2023-02-10T03:51:13.428Z,101356.05
2023-02-10T03:53:54.673Z,101360.51
2023-02-10T03:56:26.100Z,101365.54
2023-02-10T03:59:06.546Z,101366.38
2023-02-10T04:01:43.617Z,101362.20
2023-02-10T04:04:12.688Z,101366.82
2023-02-10T04:06:42.297Z,101361.78
2023-02-10T04:09:17.774Z,101369.35
2023-02-10T04:11:46.285Z,101372.77
2023-02-10T04:14:23.868Z,101376.36
2023-02-10T04:16:56.686Z,101380.46
2023-02-10T04:19:39.050Z,101385.98
2023-02-10T04:22:07.970Z,101386.15
2023-02-10T04:24:42.447Z,101391.29
2023-02-10T04:27:20.676Z,101394.20
2023-02-10T04:30:07.069Z,101397.30
2023-02-10T04:32:56.422Z,101399.75
2023-02-10T04:35:25.200Z,101399.22
2023-02-10T04:37:57.736Z,101391.80
2023-02-10T04:40:33.926Z,101388.38
2023-02-10T04:43:22.160Z,101385.61
2023-02-10T04:46:09.223Z,101382.92
2023-02-10T04:48:40.451Z,101384.89
2023-02-10T04:51:27.785Z,101383.22
2023-02-10T04:53:56.984Z,101391.23
2023-02-10T04:56:25.628Z,101393.95
2023-02-10T04:59:01.920Z,101396.33
2023-02-10T05:01:33.783Z,101397.20
2023-02-10T05:04:03.538Z,101401.42
2023-02-10T05:06:46.005Z,101403.50
2023-02-10T05:09:17.457Z,101409.38
2023-02-10T05:12:02.652Z,101408.54
2023-02-10T05:14:33.225Z,101406.61
2023-02-10T05:17:25.629Z,101402.29
2023-02-10T05:20:02.897Z,101402.27
2023-02-10T05:23:15.186Z,101401.39
2023-02-10T05:25:56.031Z,101404.00
2023-02-10T05:28:34.641Z,101404.01
2023-02-10T05:31:25.323Z,101409.55
2023-02-10T05:34:07.082Z,101413.36
2023-02-10T05:36:46.660Z,101410.25
2023-02-10T05:39:28.995Z,101409.94
2023-02-10T05:42:00.547Z,101407.84
2023-02-10T05:45:10.738Z,101409.18
2023-02-10T05:47:43.601Z,101409.11
2023-02-10T05:50:42.739Z,101405.59
2023-02-10T05:53:17.060Z,101407.05
2023-02-10T05:55:56.131Z,101409.08
2023-02-10T05:58:24.998Z,101421.22
2023-02-10T06:01:01.574Z,101414.41
2023-02-10T06:03:32.996Z,101428.08
2023-02-10T06:06:15.600Z,101426.76
2023-02-10T06:08:47.475Z,101430.63
2023-02-10T06:11:23.787Z,101423.60
2023-02-10T06:13:55.063Z,101429.05
2023-02-10T06:16:28.008Z,101431.59
2023-02-10T06:19:08.701Z,101429.97
2023-02-10T06:21:44.820Z,101437.52
2023-02-10T06:24:16.126Z,101439.56
2023-02-10T06:26:53.552Z,101441.95
2023-02-10T06:29:30.100Z,101449.17
2023-02-10T06:32:00.613Z,101446.20
2023-02-10T06:34:30.417Z,101449.80
2023-02-10T06:37:02.903Z,101445.70
2023-02-10T06:39:37.967Z,101445.73
2023-02-10T06:42:08.679Z,101442.89
2023-02-10T06:44:54.097Z,101443.39
2023-02-10T06:47:30.068Z,101438.27
2023-02-10T06:50:14.827Z,101436.19
2023-02-10T06:52:51.615Z,101435.16
2023-02-10T06:55:25.551Z,101442.67
2023-02-10T06:57:54.505Z,101445.88
2023-02-10T07:00:23.992Z,101450.11
2023-02-10T07:02:55.754Z,101454.36
2023-02-10T07:05:26.363Z,101457.98
2023-02-10T07:08:00.367Z,101464.55
2023-02-10T07:10:29.748Z,101477.02
2023-02-10T07:13:00.679Z,101473.87
2023-02-10T07:15:30.340Z,101479.13
2023-02-10T07:17:58.703Z,101471.00
2023-02-10T07:20:27.782Z,101469.90
2023-02-10T07:22:56.148Z,101468.98
2023-02-10T07:25:27.005Z,101463.17
2023-02-10T07:27:55.436Z,101459.64
2023-02-10T07:30:23.786Z,101450.71
2023-02-10T07:32:52.352Z,101458.74
2023-02-10T07:35:52.132Z,101473.45
2023-02-10T07:38:24.621Z,101487.36
2023-02-10T07:40:56.383Z,101487.23
2023-02-10T07:43:27.274Z,101492.66
2023-02-10T07:46:09.375Z,101496.38
2023-02-10T07:48:43.308Z,101496.35
2023-02-10T07:55:05.643Z,101496.45
2023-02-10T07:57:40.057Z,101499.35
2023-02-10T08:00:09.926Z,101495.41
2023-02-10T08:02:39.372Z,101495.13
2023-02-10T08:05:08.112Z,101489.36
2023-02-10T08:07:47.125Z,101484.77
2023-02-10T08:10:16.370Z,101475.16
2023-02-10T08:12:58.328Z,101471.79
2023-02-10T08:15:35.702Z,101476.17
2023-02-10T08:18:13.986Z,101478.89
2023-02-10T08:20:49.057Z,101479.98
2023-02-10T08:23:20.826Z,101485.60
2023-02-10T08:25:52.264Z,101495.15
2023-02-10T08:37:39.290Z,101494.10
2023-02-10T08:40:24.034Z,101496.96
2023-02-10T08:42:55.179Z,101500.52
2023-02-10T08:45:28.793Z,101500.34
2023-02-10T08:48:02.938Z,101509.47
2023-02-10T08:50:40.270Z,101514.27
2023-02-10T08:53:12.224Z,101512.20
2023-02-10T08:56:08.134Z,101509.89
2023-02-10T08:58:59.310Z,101510.30
2023-02-10T09:01:32.084Z,101512.26
2023-02-10T09:04:10.832Z,101511.53
2023-02-10T09:06:45.364Z,101518.02
2023-02-10T09:09:25.826Z,101518.77
2023-02-10T09:11:57.157Z,101526.68
2023-02-10T09:14:36.073Z,101520.16
2023-02-10T09:17:06.997Z,101516.92
2023-02-10T09:19:40.024Z,101520.48
2023-02-10T09:22:11.099Z,101520.02
2023-02-10T09:24:39.619Z,101522.61
2023-02-10T09:27:10.074Z,101520.07
2023-02-10T09:29:42.093Z,101518.34
2023-02-10T09:32:13.138Z,101521.80
2023-02-10T09:34:42.639Z,101534.29
2023-02-10T09:37:14.317Z,101541.19
2023-02-10T09:39:44.742Z,101545.58
2023-02-10T09:42:38.126Z,101545.73
2023-02-10T09:45:20.133Z,101542.69
2023-02-10T09:48:27.137Z,101548.54
2023-02-10T09:51:28.876Z,101549.81
2023-02-10T09:53:57.515Z,101555.98
2023-02-10T09:56:39.515Z,101555.19
2023-02-10T09:59:15.694Z,101560.25
2023-02-10T10:01:49.431Z,101556.04
2023-02-10T10:04:23.493Z,101558.11
2023-02-10T10:07:07.107Z,101552.88
2023-02-10T10:09:44.972Z,101555.50
2023-02-10T10:12:18.598Z,101558.46
2023-02-10T10:14:55.231Z,101558.27
2023-02-10T10:17:58.605Z,101561.08
2023-02-10T10:20:36.262Z,101569.25
2023-02-10T10:23:34.168Z,101569.94
2023-02-10T10:26:35.433Z,101561.59
2023-02-10T10:29:34.598Z,101552.74
2023-02-10T10:32:40.675Z,101548.59
2023-02-10T10:35:25.417Z,101551.04
2023-02-10T10:37:54.561Z,101553.83
2023-02-10T10:40:33.922Z,101548.88
2023-02-10T10:43:03.631Z,101541.52
2023-02-10T10:45:47.890Z,101540.46
2023-02-10T10:48:28.239Z,101543.46
2023-02-10T10:51:02.622Z,101540.69
2023-02-10T10:53:43.630Z,101539.19
2023-02-10T10:56:30.914Z,101541.39
2023-02-10T10:59:01.013Z,101535.84
2023-02-10T11:01:41.925Z,101528.69
2023-02-10T11:04:26.483Z,101527.11
2023-02-10T11:07:15.142Z,101533.40
2023-02-10T11:09:52.773Z,101531.41
2023-02-10T11:12:51.974Z,101532.25
2023-02-10T11:15:43.450Z,101531.95
2023-02-10T11:18:23.693Z,101524.45
2023-02-10T11:20:58.623Z,101525.65
2023-02-10T11:23:28.467Z,101523.61
2023-02-10T11:26:04.176Z,101525.29
2023-02-10T11:28:35.159Z,101515.91
2023-02-10T11:31:36.180Z,101514.41
2023-02-10T11:34:18.153Z,101506.34
2023-02-10T11:36:46.834Z,101510.05
2023-02-10T11:39:56.740Z,101518.52
2023-02-10T11:42:44.170Z,101518.16
2023-02-10T11:45:33.646Z,101517.10
2023-02-10T11:48:21.644Z,101509.71
2023-02-10T11:51:13.964Z,101512.26
2023-02-10T11:53:48.406Z,101507.98
2023-02-10T11:56:46.599Z,101506.52
2023-02-10T11:59:36.352Z,101502.80
2023-02-10T12:02:09.963Z,101505.29
2023-02-10T12:04:45.911Z,101499.58
2023-02-10T12:08:00.382Z,101501.85
2023-02-10T12:10:48.158Z,101501.52
2023-02-10T12:13:31.317Z,101503.98
2023-02-10T12:16:27.242Z,101506.29
2023-02-10T12:19:12.532Z,101504.63
2023-02-10T12:22:09.393Z,101502.69
2023-02-10T12:25:06.635Z,101500.28
2023-02-10T12:28:13.635Z,101497.33
2023-02-10T12:30:48.364Z,101492.01
2023-02-10T12:33:42.707Z,101497.35
2023-02-10T12:36:50.051Z,101498.03
2023-02-10T12:39:42.728Z,101504.84
2023-02-10T12:42:54.873Z,101503.14
2023-02-10T12:45:44.247Z,101501.59
2023-02-10T12:49:11.441Z,101502.76
2023-02-10T12:52:13.584Z,101503.77
2023-02-10T12:55:05.598Z,101502.56
2023-02-10T12:57:46.695Z,101500.99
2023-02-10T13:00:29.397Z,101502.77
2023-02-10T13:03:09.888Z,101500.06
2023-02-10T13:05:53.942Z,101497.83
2023-02-10T13:08:28.761Z,101494.88
2023-02-10T13:11:07.328Z,101497.17
2023-02-10T13:13:39.986Z,101494.20
2023-02-10T13:16:24.557Z,101496.30
2023-02-10T13:20:09.932Z,101500.84
2023-02-10T13:23:41.150Z,101499.95
2023-02-10T13:27:02.284Z,101502.55
2023-02-10T13:29:53.407Z,101509.56
2023-02-10T13:32:33.175Z,101506.10
2023-02-10T13:35:06.960Z,101510.79
2023-02-10T13:37:47.130Z,101505.73
2023-02-10T13:40:37.917Z,101499.52
2023-02-10T13:43:09.155Z,101495.02
2023-02-10T13:45:38.581Z,101497.98
2023-02-10T13:48:35.168Z,101500.59
2023-02-10T13:51:13.596Z,101501.15
2023-02-10T13:53:45.346Z,101504.13
2023-02-10T13:56:19.338Z,101510.34
2023-02-10T13:58:57.956Z,101510.34
2023-02-10T14:01:48.194Z,101506.88
2023-02-10T14:04:22.698Z,101508.79
2023-02-10T14:07:18.240Z,101508.81
2023-02-10T14:10:30.085Z,101507.27
2023-02-10T14:13:21.452Z,101505.11
2023-02-10T14:16:09.345Z,101498.98
2023-02-10T14:18:40.448Z,101496.31
2023-02-10T14:21:19.799Z,101498.32
2023-02-10T14:23:58.270Z,101498.95
2023-02-10T14:26:36.706Z,101497.36
2023-02-10T14:29:20.729Z,101493.91
2023-02-10T14:32:03.218Z,101492.33
2023-02-10T14:34:34.681Z,101490.74
2023-02-10T14:37:19.878Z,101489.69
2023-02-10T14:39:54.079Z,101489.69
2023-02-10T14:42:28.910Z,101487.41
2023-02-10T14:45:32.830Z,101483.95
2023-02-10T14:48:07.205Z,101484.80
2023-02-10T14:50:39.588Z,101479.42
2023-02-10T14:53:19.278Z,101476.45
2023-02-10T14:56:12.440Z,101473.47
2023-02-10T14:58:47.568Z,101476.05
2023-02-10T15:01:41.690Z,101479.36
2023-02-10T15:04:18.911Z,101477.80
2023-02-10T15:06:50.411Z,101479.52
2023-02-10T15:09:33.649Z,101477.58
2023-02-10T15:12:13.076Z,101475.59
2023-02-10T15:15:04.660Z,101476.23
2023-02-10T15:18:03.742Z,101475.64
2023-02-10T15:20:33.900Z,101480.27
2023-02-10T15:23:03.021Z,101480.39
2023-02-10T15:25:33.358Z,101478.61
2023-02-10T15:28:34.370Z,101481.88
2023-02-10T15:31:15.262Z,101485.32
2023-02-10T15:33:49.565Z,101495.00
2023-02-10T15:36:35.239Z,101494.79
2023-02-10T15:39:27.430Z,101498.41
2023-02-10T15:42:06.292Z,101502.33
2023-02-10T15:44:44.802Z,101503.02
2023-02-10T15:47:15.997Z,101499.52
2023-02-10T15:50:05.130Z,101498.95
2023-02-10T15:53:03.918Z,101500.83
2023-02-10T15:55:37.047Z,101503.89
2023-02-10T15:58:08.023Z,101505.07
2023-02-10T16:00:38.402Z,101506.09
2023-02-10T16:03:07.684Z,101501.90
2023-02-10T16:05:42.740Z,101498.22
2023-02-10T16:08:22.964Z,101501.66
2023-02-10T16:10:51.881Z,101497.31
2023-02-10T16:13:25.633Z,101499.36
2023-02-10T16:15:55.387Z,101499.16
2023-02-10T16:18:30.672Z,101501.56
2023-02-10T16:21:01.138Z,101501.70
2023-02-10T16:23:31.585Z,101496.98
2023-02-10T16:26:00.641Z,101494.69
2023-02-10T16:28:30.880Z,101488.26
2023-02-10T16:30:59.815Z,101491.35
2023-02-10T16:33:28.517Z,101491.86
2023-02-10T16:36:05.763Z,101493.58
2023-02-10T16:38:39.808Z,101494.41
2023-02-10T16:41:11.608Z,101493.02
2023-02-10T16:43:43.380Z,101493.86
2023-02-10T16:46:17.528Z,101495.23
2023-02-10T16:48:48.648Z,101491.56
2023-02-10T16:51:17.934Z,101485.13
2023-02-10T16:53:57.342Z,101488.20
2023-02-10T16:56:31.030Z,101496.52
2023-02-10T16:59:02.995Z,101495.98
2023-02-10T17:01:32.554Z,101497.70
2023-02-10T17:04:02.567Z,101501.35
2023-02-10T17:06:34.409Z,101499.09
2023-02-10T17:09:02.990Z,101503.91
2023-02-10T17:11:34.669Z,101508.41
2023-02-10T17:14:03.334Z,101516.18
2023-02-10T17:16:58.160Z,101520.84
2023-02-10T17:19:33.629Z,101515.86
2023-02-10T17:22:06.978Z,101519.05
2023-02-10T17:24:36.164Z,101515.96
2023-02-10T17:27:14.566Z,101516.47
2023-02-10T17:29:46.328Z,101515.95
2023-02-10T17:32:16.892Z,101516.90
2023-02-10T17:34:46.042Z,101514.40
2023-02-10T17:37:17.652Z,101514.36
2023-02-10T17:39:57.136Z,101515.00
2023-02-10T17:42:31.538Z,101514.46
2023-02-10T17:45:03.744Z,101517.38
2023-02-10T17:47:32.629Z,101523.77
2023-02-10T17:50:06.629Z,101524.09
2023-02-10T17:52:35.832Z,101525.30
2023-02-10T17:55:22.262Z,101523.20
2023-02-10T17:57:59.318Z,101519.89
2023-02-10T18:00:28.197Z,101530.11
2023-02-10T18:03:05.687Z,101532.02
2023-02-10T18:05:45.155Z,101530.13
2023-02-10T18:08:16.793Z,101526.95
2023-02-10T18:10:45.663Z,101529.02
2023-02-10T18:13:30.419Z,101524.48
2023-02-10T18:16:05.453Z,101522.20
2023-02-10T18:18:34.304Z,101522.01
2023-02-10T18:21:06.626Z,101514.55
2023-02-10T18:23:36.448Z,101514.91
2023-02-10T18:26:06.254Z,101509.70
2023-02-10T18:28:35.128Z,101510.75
2023-02-10T18:31:04.086Z,101511.42
2023-02-10T18:33:38.132Z,101512.27
2023-02-10T18:36:09.464Z,101504.80
2023-02-10T18:38:39.758Z,101503.89
2023-02-10T18:41:10.532Z,101500.61
2023-02-10T18:43:52.097Z,101502.84
2023-02-10T18:46:21.532Z,101495.22
2023-02-10T18:48:50.562Z,101496.60
2023-02-10T18:51:23.465Z,101495.21
2023-02-10T18:53:52.825Z,101491.91
2023-02-10T18:56:22.752Z,101495.53
2023-02-10T18:58:51.385Z,101499.17
2023-02-10T19:01:25.826Z,101493.66
2023-02-10T19:03:55.038Z,101495.39
2023-02-10T19:06:24.022Z,101490.50
2023-02-10T19:08:52.697Z,101493.05
2023-02-10T19:11:23.812Z,101492.50
2023-02-10T19:13:52.841Z,101485.55
2023-02-10T19:16:22.514Z,101485.20
2023-02-10T19:19:00.375Z,101480.02
2023-02-10T19:21:33.194Z,101472.21
2023-02-10T19:24:02.081Z,101452.59
2023-02-10T19:26:36.645Z,101444.58
2023-02-10T19:29:08.982Z,101436.52
2023-02-10T19:31:52.555Z,101439.73
2023-02-10T19:34:21.717Z,101439.66
2023-02-10T19:36:58.526Z,101432.48
2023-02-10T19:39:30.404Z,101431.16
2023-02-10T19:41:59.112Z,101429.87
2023-02-10T19:44:36.469Z,101432.07
2023-02-10T19:47:05.291Z,101429.25
2023-02-10T19:49:34.092Z,101419.30
2023-02-10T19:52:02.891Z,101413.83
2023-02-10T19:54:31.431Z,101410.06
2023-02-10T19:56:59.923Z,101396.47
2023-02-10T19:59:28.331Z,101395.50
2023-02-10T20:01:56.795Z,101400.97
2023-02-10T20:04:28.184Z,101409.17
2023-02-10T20:07:02.879Z,101411.36
2023-02-10T20:09:32.353Z,101406.46
2023-02-10T20:12:00.754Z,101412.14
2023-02-10T20:14:31.795Z,101412.80
2023-02-10T20:17:01.201Z,101407.26
2023-02-10T20:19:29.754Z,101408.79
2023-02-10T20:21:58.588Z,101407.09
2023-02-10T20:24:27.344Z,101402.98
2023-02-10T20:27:28.125Z,101398.94
2023-02-10T20:30:12.190Z,101405.95
2023-02-10T20:32:41.012Z,101402.96
2023-02-10T20:35:10.417Z,101403.85
2023-02-10T20:37:39.424Z,101401.96
2023-02-10T20:40:08.756Z,101389.38
2023-02-10T20:42:43.335Z,101379.73
2023-02-10T20:45:11.882Z,101392.54
2023-02-10T20:47:40.497Z,101382.98
2023-02-10T20:50:09.548Z,101383.13
2023-02-10T20:52:45.238Z,101382.06
2023-02-10T20:55:25.254Z,101380.88
2023-02-10T20:57:53.824Z,101376.41
2023-02-10T21:00:22.543Z,101371.76
2023-02-10T21:02:51.711Z,101368.11
2023-02-10T21:05:21.828Z,101364.29
2023-02-10T21:08:03.714Z,101362.42
2023-02-10T21:10:32.789Z,101360.73
2023-02-10T21:13:01.277Z,101360.77
2023-02-10T21:15:32.640Z,101359.02
2023-02-10T21:18:01.405Z,101352.63
2023-02-10T21:20:31.312Z,101351.83
2023-02-10T21:23:00.498Z,101346.05
2023-02-10T21:25:33.089Z,101342.99
2023-02-10T21:28:01.652Z,101342.33
2023-02-10T21:30:31.286Z,101335.29
2023-02-10T21:33:02.035Z,101332.41
2023-02-10T21:35:52.775Z,101328.10
2023-02-10T21:38:23.628Z,101327.92
2023-02-10T21:41:03.137Z,101318.27
2023-02-10T21:43:32.804Z,101312.28
2023-02-10T21:46:07.998Z,101311.80
2023-02-10T21:48:36.591Z,101308.70
2023-02-10T21:51:11.967Z,101311.66
2023-02-10T21:53:41.050Z,101313.92
2023-02-10T21:56:09.454Z,101313.44
2023-02-10T21:58:37.843Z,101309.31
2023-02-10T22:01:11.703Z,101311.92
2023-02-10T22:03:40.348Z,101308.48
2023-02-10T22:06:09.683Z,101312.30
2023-02-10T22:08:38.197Z,101315.44
2023-02-10T22:11:09.902Z,101317.72
2023-02-10T22:13:39.924Z,101314.31
2023-02-10T22:16:11.442Z,101316.63
2023-02-10T22:18:40.595Z,101311.30
2023-02-10T22:21:12.362Z,101305.64
2023-02-10T22:23:41.826Z,101302.73
2023-02-10T22:26:13.148Z,101293.95
2023-02-10T22:28:42.578Z,101288.00
2023-02-10T22:31:16.956Z,101284.96
2023-02-10T22:33:51.714Z,101282.38
2023-02-10T22:36:23.931Z,101277.04
2023-02-10T22:38:54.358Z,101274.27
2023-02-10T22:41:26.783Z,101265.47
2023-02-10T22:44:01.283Z,101263.39
2023-02-10T22:46:30.573Z,101258.73
2023-02-10T22:48:59.840Z,101252.85
2023-02-10T22:51:29.889Z,101252.84
2023-02-10T22:54:08.565Z,101254.23
2023-02-10T22:56:39.786Z,101253.38
2023-02-10T22:59:09.662Z,101250.77
2023-02-10T23:01:43.454Z,101242.81
2023-02-10T23:04:14.654Z,101239.75
2023-02-10T23:06:43.802Z,101237.34
2023-02-10T23:09:14.749Z,101231.27
2023-02-10T23:11:49.700Z,101226.58
2023-02-10T23:14:18.495Z,101222.40
2023-02-10T23:16:54.773Z,101216.30
2023-02-10T23:19:25.739Z,101217.46
2023-02-10T23:21:54.069Z,101213.84
2023-02-10T23:24:22.439Z,101207.30
2023-02-10T23:26:50.978Z,101208.65
2023-02-10T23:29:19.316Z,101202.92
2023-02-10T23:31:47.966Z,101205.84
2023-02-10T23:34:17.651Z,101205.44
2023-02-10T23:36:48.296Z,101208.70
2023-02-10T23:39:17.050Z,101205.40
2023-02-10T23:41:47.285Z,101201.58
2023-02-10T23:44:17.317Z,101189.14
2023-02-10T23:46:48.311Z,101182.04
2023-02-10T23:49:19.823Z,101178.40
2023-02-10T23:51:50.191Z,101174.77
2023-02-10T23:54:18.665Z,101170.05
2023-02-10T23:56:47.247Z,101160.52
2023-02-10T23:59:15.874Z,101154.45
